createdAt,value
2019-04-29T00:01:37.837Z,10.20
2019-04-29T00:04:08.052Z,10.20
2019-04-29T00:06:38.332Z,10.20
2019-04-29T00:09:11.953Z,10.20
2019-04-29T00:11:42.192Z,10.20
2019-04-29T00:14:12.596Z,10.20
2019-04-29T00:16:55.444Z,10.00
2019-04-29T00:19:39.371Z,9.90
2019-04-29T00:22:09.994Z,9.70
2019-04-29T00:24:40.245Z,9.20
2019-04-29T00:27:10.595Z,9.40
2019-04-29T00:29:40.773Z,9.50
2019-04-29T00:32:11.224Z,9.60
2019-04-29T00:34:41.417Z,9.70
2019-04-29T00:37:33.394Z,9.60
2019-04-29T00:40:21.300Z,9.60
2019-04-29T00:43:08.417Z,9.60
2019-04-29T00:45:38.673Z,9.40
2019-04-29T00:48:08.880Z,9.50
2019-04-29T00:50:39.044Z,9.30
2019-04-29T00:53:09.413Z,9.40
2019-04-29T00:55:39.661Z,9.50
2019-04-29T00:58:09.929Z,9.50
2019-04-29T01:00:41.437Z,9.50
2019-04-29T01:03:11.728Z,9.50
2019-04-29T01:05:41.928Z,9.50
2019-04-29T01:08:12.225Z,9.30
2019-04-29T01:10:42.488Z,9.20
2019-04-29T01:13:12.787Z,9.20
2019-04-29T01:15:43.039Z,9.20
2019-04-29T01:18:13.552Z,9.20
2019-04-29T01:20:43.761Z,9.20
2019-04-29T01:23:14.053Z,9.10
2019-04-29T01:25:45.861Z,9.20
2019-04-29T01:28:22.008Z,9.20
2019-04-29T01:30:58.082Z,9.30
2019-04-29T01:33:28.497Z,9.10
2019-04-29T01:36:28.480Z,9.00
2019-04-29T01:39:01.070Z,9.00
2019-04-29T01:41:35.204Z,9.20
2019-04-29T01:44:06.335Z,9.20
2019-04-29T01:46:36.574Z,9.00
2019-04-29T01:49:06.825Z,9.10
2019-04-29T01:51:37.001Z,8.70
2019-04-29T01:54:07.269Z,8.80
2019-04-29T01:56:37.541Z,8.70
2019-04-29T01:59:07.795Z,8.60
2019-04-29T02:01:38.052Z,8.60
2019-04-29T02:04:08.354Z,8.70
2019-04-29T02:06:38.601Z,8.50
2019-04-29T02:09:12.152Z,8.60
2019-04-29T02:11:42.435Z,8.70
2019-04-29T02:14:12.696Z,8.80
2019-04-29T02:16:44.061Z,8.90
2019-04-29T02:19:14.285Z,8.90
2019-04-29T02:22:03.477Z,8.80
2019-04-29T02:24:34.789Z,8.40
2019-04-29T02:27:05.811Z,8.60
2019-04-29T02:29:36.148Z,8.50
2019-04-29T02:32:06.400Z,8.50
2019-04-29T02:34:36.573Z,8.70
2019-04-29T02:37:08.405Z,8.70
2019-04-29T02:39:46.849Z,8.70
2019-04-29T02:42:45.106Z,8.70
2019-04-29T02:45:20.282Z,8.70
2019-04-29T02:47:50.550Z,8.30
2019-04-29T02:50:20.818Z,8.30
2019-04-29T02:52:50.990Z,8.30
2019-04-29T02:55:29.618Z,8.20
2019-04-29T02:58:07.891Z,8.20
2019-04-29T03:00:57.142Z,7.90
2019-04-29T03:03:35.250Z,8.00
2019-04-29T03:06:05.424Z,8.20
2019-04-29T03:08:35.616Z,8.30
2019-04-29T03:11:05.783Z,8.40
2019-04-29T03:13:35.944Z,8.30
2019-04-29T03:16:06.208Z,8.40
2019-04-29T03:18:38.338Z,8.30
2019-04-29T03:21:21.666Z,8.30
2019-04-29T03:23:51.959Z,8.40
2019-04-29T03:26:22.365Z,8.40
2019-04-29T03:28:52.589Z,8.50
2019-04-29T03:31:22.874Z,8.60
2019-04-29T03:33:53.186Z,8.40
2019-04-29T03:36:23.463Z,8.40
2019-04-29T03:38:53.741Z,8.50
2019-04-29T03:41:23.950Z,8.50
2019-04-29T03:43:54.146Z,8.40
2019-04-29T03:46:24.326Z,8.50
2019-04-29T03:48:54.565Z,8.50
2019-04-29T03:51:24.877Z,8.50
2019-04-29T03:53:55.059Z,8.40
2019-04-29T03:56:25.366Z,8.40
2019-04-29T03:58:55.553Z,8.30
2019-04-29T04:01:47.229Z,8.40
2019-04-29T04:04:35.073Z,8.40
2019-04-29T04:07:22.674Z,8.30
2019-04-29T04:09:53.000Z,8.30
2019-04-29T04:12:23.178Z,8.20
2019-04-29T04:14:53.457Z,8.30
2019-04-29T04:17:32.281Z,8.30
2019-04-29T04:20:02.958Z,8.40
2019-04-29T04:22:46.504Z,8.40
2019-04-29T04:25:17.190Z,8.40
2019-04-29T04:27:47.462Z,8.50
2019-04-29T04:30:18.566Z,8.50
2019-04-29T04:32:48.821Z,8.40
2019-04-29T04:35:19.064Z,8.50
2019-04-29T04:37:49.234Z,8.60
2019-04-29T04:40:25.636Z,8.50
2019-04-29T04:42:55.892Z,8.60
2019-04-29T04:45:26.178Z,8.60
2019-04-29T04:47:56.397Z,8.70
2019-04-29T04:50:26.671Z,8.70
2019-04-29T04:52:56.929Z,8.70
2019-04-29T04:55:29.675Z,8.60
2019-04-29T04:57:59.912Z,8.70
2019-04-29T05:00:31.747Z,8.70
2019-04-29T05:03:02.000Z,8.50
2019-04-29T05:05:32.709Z,8.60
2019-04-29T05:08:03.002Z,8.80
2019-04-29T05:10:33.277Z,8.90
2019-04-29T05:13:03.543Z,8.90
2019-04-29T05:15:33.805Z,9.00
2019-04-29T05:18:04.181Z,8.90
2019-04-29T05:20:34.505Z,9.00
2019-04-29T05:23:05.004Z,9.00
2019-04-29T05:25:35.501Z,9.00
2019-04-29T05:28:05.781Z,9.10
2019-04-29T05:30:35.963Z,9.20
2019-04-29T05:33:06.176Z,9.20
2019-04-29T05:35:56.563Z,9.10
2019-04-29T05:38:31.069Z,9.20
2019-04-29T05:41:01.312Z,9.10
2019-04-29T05:43:56.356Z,9.10
2019-04-29T05:46:51.432Z,9.20
2019-04-29T05:49:26.862Z,9.20
2019-04-29T05:52:08.481Z,9.20
2019-04-29T05:54:38.829Z,9.20
2019-04-29T05:57:09.079Z,9.20
2019-04-29T05:59:39.386Z,9.30
2019-04-29T06:02:09.707Z,9.30
2019-04-29T06:04:40.785Z,9.40
2019-04-29T06:07:11.028Z,9.50
2019-04-29T06:09:41.318Z,9.50
2019-04-29T06:12:11.552Z,9.60
2019-04-29T06:14:41.772Z,9.60
2019-04-29T06:17:12.012Z,9.60
2019-04-29T06:19:42.355Z,9.70
2019-04-29T06:22:12.648Z,9.70
2019-04-29T06:24:42.934Z,9.90
2019-04-29T06:27:13.216Z,9.90
2019-04-29T06:29:43.456Z,9.90
2019-04-29T06:32:13.925Z,9.90
2019-04-29T06:34:44.133Z,9.60
2019-04-29T06:37:14.383Z,9.90
2019-04-29T06:39:44.699Z,9.90
2019-04-29T06:42:15.481Z,10.00
2019-04-29T06:44:49.101Z,10.00
2019-04-29T06:47:18.794Z,10.00
2019-04-29T06:49:49.081Z,9.90
2019-04-29T06:52:19.403Z,10.10
2019-04-29T06:54:49.693Z,10.00
2019-04-29T06:57:20.000Z,10.40
2019-04-29T06:59:50.290Z,10.60
2019-04-29T07:02:21.129Z,10.80
2019-04-29T07:04:52.186Z,10.80
2019-04-29T07:07:22.889Z,10.80
2019-04-29T07:09:56.829Z,11.10
2019-04-29T07:12:26.465Z,11.40
2019-04-29T07:14:56.750Z,11.80
2019-04-29T07:17:26.937Z,12.10
2019-04-29T07:19:57.648Z,12.10
2019-04-29T07:22:31.110Z,12.10
2019-04-29T07:25:01.156Z,12.30
2019-04-29T07:27:34.843Z,12.40
2019-04-29T07:30:06.539Z,12.40
2019-04-29T07:32:35.353Z,12.40
2019-04-29T07:35:09.981Z,12.60
2019-04-29T07:37:38.042Z,12.60
2019-04-29T07:40:09.385Z,12.50
2019-04-29T07:42:39.804Z,12.30
2019-04-29T07:45:43.379Z,12.50
2019-04-29T07:48:06.394Z,12.50
2019-04-29T07:50:34.472Z,12.60
2019-04-29T07:53:05.217Z,12.50
2019-04-29T07:55:35.504Z,12.80
2019-04-29T07:58:05.851Z,12.90
2019-04-29T08:00:36.646Z,12.90
2019-04-29T08:03:07.759Z,12.90
2019-04-29T08:05:40.344Z,12.60
2019-04-29T08:08:10.667Z,12.60
2019-04-29T08:10:53.590Z,12.50
2019-04-29T08:13:14.507Z,12.40
2019-04-29T08:15:44.959Z,12.40
2019-04-29T08:18:16.161Z,12.50
2019-04-29T08:20:47.276Z,12.60
2019-04-29T08:23:17.508Z,12.70
2019-04-29T08:25:50.719Z,12.80
2019-04-29T08:28:19.741Z,12.80
2019-04-29T08:30:50.435Z,12.90
2019-04-29T08:33:20.685Z,13.00
2019-04-29T08:35:50.924Z,12.80
2019-04-29T08:38:21.299Z,12.90
2019-04-29T08:40:51.744Z,12.90
2019-04-29T08:43:31.360Z,12.80
2019-04-29T08:46:07.890Z,12.80
2019-04-29T08:48:38.300Z,12.70
2019-04-29T08:51:08.591Z,12.50
2019-04-29T08:53:38.821Z,12.50
2019-04-29T08:56:10.250Z,12.50
2019-04-29T08:58:44.093Z,12.70
2019-04-29T09:01:15.000Z,12.80
2019-04-29T09:03:45.427Z,12.90
2019-04-29T09:06:15.742Z,12.90
2019-04-29T09:08:54.621Z,12.90
2019-04-29T09:11:17.921Z,13.00
2019-04-29T09:13:48.261Z,12.90
2019-04-29T09:16:18.546Z,13.00
2019-04-29T09:18:48.795Z,12.90
2019-04-29T09:21:19.011Z,12.70
2019-04-29T09:23:49.349Z,13.00
2019-04-29T09:26:26.069Z,13.10
2019-04-29T09:28:59.695Z,13.20
2019-04-29T09:31:28.335Z,13.00
2019-04-29T09:34:06.288Z,13.20
2019-04-29T09:36:30.699Z,13.30
2019-04-29T09:39:01.028Z,13.40
2019-04-29T09:41:38.752Z,13.40
2019-04-29T09:44:35.191Z,13.50
2019-04-29T09:47:08.534Z,13.50
2019-04-29T09:49:40.714Z,13.60
2019-04-29T09:52:11.091Z,13.60
2019-04-29T09:54:41.428Z,13.50
2019-04-29T09:57:11.720Z,13.40
2019-04-29T09:59:46.299Z,13.60
2019-04-29T10:02:35.766Z,13.60
2019-04-29T10:05:31.481Z,13.70
2019-04-29T10:08:01.815Z,13.90
2019-04-29T10:10:32.188Z,14.10
2019-04-29T10:13:02.556Z,14.30
2019-04-29T10:15:43.176Z,14.00
2019-04-29T10:18:25.045Z,14.00
2019-04-29T10:20:57.875Z,13.90
2019-04-29T10:23:28.234Z,14.00
2019-04-29T10:25:58.593Z,13.90
2019-04-29T10:28:28.932Z,13.60
2019-04-29T10:30:59.270Z,13.50
2019-04-29T10:33:29.664Z,13.70
2019-04-29T10:35:59.890Z,13.80
2019-04-29T10:38:30.108Z,13.70
2019-04-29T10:41:16.049Z,13.70
2019-04-29T10:44:05.306Z,13.90
2019-04-29T10:46:48.819Z,14.10
2019-04-29T10:49:34.743Z,14.20
2019-04-29T10:52:04.648Z,14.10
2019-04-29T10:54:35.475Z,14.20
2019-04-29T10:57:06.186Z,14.40
2019-04-29T10:59:40.676Z,14.10
2019-04-29T11:02:33.932Z,14.30
2019-04-29T11:05:35.043Z,14.20
2019-04-29T11:08:18.854Z,14.10
2019-04-29T11:10:49.283Z,14.10
2019-04-29T11:13:19.524Z,14.20
2019-04-29T11:15:51.257Z,14.10
2019-04-29T11:18:23.218Z,14.00
2019-04-29T11:20:55.313Z,14.20
2019-04-29T11:23:50.594Z,14.40
2019-04-29T11:26:37.344Z,14.50
2019-04-29T11:29:09.520Z,14.40
2019-04-29T11:31:39.598Z,14.20
2019-04-29T11:34:25.067Z,14.10
2019-04-29T11:36:55.308Z,14.10
2019-04-29T11:39:25.595Z,14.20
2019-04-29T11:41:59.654Z,14.30
2019-04-29T11:44:28.338Z,14.40
2019-04-29T11:46:58.764Z,14.60
2019-04-29T11:49:40.611Z,14.70
2019-04-29T11:52:10.893Z,14.60
2019-04-29T11:54:41.318Z,14.50
2019-04-29T11:57:17.136Z,14.50
2019-04-29T12:00:10.117Z,14.70
2019-04-29T12:02:47.044Z,14.70
2019-04-29T12:05:27.478Z,14.70
2019-04-29T12:07:57.711Z,14.30
2019-04-29T12:10:27.949Z,14.20
2019-04-29T12:12:59.786Z,14.20
2019-04-29T12:15:45.071Z,14.30
2019-04-29T12:18:19.068Z,14.30
2019-04-29T12:21:08.407Z,14.40
2019-04-29T12:23:38.769Z,14.40
2019-04-29T12:26:10.618Z,14.50
2019-04-29T12:28:42.871Z,14.70
2019-04-29T12:31:20.356Z,14.40
2019-04-29T12:33:55.997Z,14.70
2019-04-29T12:36:26.295Z,14.60
2019-04-29T12:39:42.226Z,14.60
2019-04-29T12:42:14.216Z,14.60
2019-04-29T12:44:59.729Z,14.50
2019-04-29T12:47:32.049Z,14.40
2019-04-29T12:50:02.331Z,14.20
2019-04-29T12:52:32.673Z,14.40
2019-04-29T12:55:19.325Z,14.40
2019-04-29T12:57:35.658Z,14.50
2019-04-29T13:00:09.029Z,14.70
2019-04-29T13:03:00.274Z,14.80
2019-04-29T13:05:58.425Z,14.80
2019-04-29T13:08:28.333Z,14.80
2019-04-29T13:11:01.389Z,14.70
2019-04-29T13:13:33.427Z,14.70
2019-04-29T13:16:22.065Z,14.80
2019-04-29T13:19:30.020Z,14.90
2019-04-29T13:22:01.352Z,14.90
2019-04-29T13:24:31.571Z,14.80
2019-04-29T13:27:15.403Z,14.80
2019-04-29T13:29:36.200Z,14.90
2019-04-29T13:32:05.854Z,15.10
2019-04-29T13:34:39.780Z,15.30
2019-04-29T13:37:18.343Z,15.00
2019-04-29T13:39:42.053Z,15.00
2019-04-29T13:42:15.628Z,15.00
2019-04-29T13:45:04.424Z,14.90
2019-04-29T13:47:33.432Z,14.90
2019-04-29T13:50:20.125Z,14.80
2019-04-29T13:52:42.899Z,14.50
2019-04-29T13:55:17.953Z,14.50
2019-04-29T13:57:49.556Z,14.70
2019-04-29T14:00:28.660Z,14.80
2019-04-29T14:03:14.741Z,14.90
2019-04-29T14:05:45.175Z,15.00
2019-04-29T14:08:15.471Z,15.00
2019-04-29T14:10:46.807Z,15.00
2019-04-29T14:13:20.988Z,14.90
2019-04-29T14:15:50.021Z,14.80
2019-04-29T14:18:20.368Z,14.80
2019-04-29T14:20:51.874Z,14.80
2019-04-29T14:23:22.660Z,14.90
2019-04-29T14:25:52.896Z,14.70
2019-04-29T14:28:23.162Z,14.70
2019-04-29T14:30:55.725Z,14.70
2019-04-29T14:33:30.927Z,14.60
2019-04-29T14:36:05.783Z,14.50
2019-04-29T14:38:40.638Z,14.50
2019-04-29T14:41:08.118Z,14.30
2019-04-29T14:43:45.949Z,14.20
2019-04-29T14:46:40.968Z,14.20
2019-04-29T14:49:15.280Z,14.20
2019-04-29T14:51:45.664Z,14.30
2019-04-29T14:54:17.260Z,14.30
2019-04-29T14:56:47.704Z,14.20
2019-04-29T14:59:18.194Z,14.10
2019-04-29T15:02:01.961Z,14.10
2019-04-29T15:04:44.259Z,14.20
2019-04-29T15:07:14.722Z,14.20
2019-04-29T15:09:58.254Z,14.20
2019-04-29T15:13:11.878Z,14.20
2019-04-29T15:16:04.549Z,14.20
2019-04-29T15:19:03.187Z,14.20
2019-04-29T15:21:42.922Z,14.30
2019-04-29T15:24:10.113Z,14.40
2019-04-29T15:26:40.405Z,14.40
2019-04-29T15:29:10.714Z,14.30
2019-04-29T15:31:42.590Z,14.30
2019-04-29T15:34:14.570Z,14.40
2019-04-29T15:36:45.309Z,14.40
2019-04-29T15:39:15.903Z,14.30
2019-04-29T15:41:46.507Z,14.20
2019-04-29T15:44:20.288Z,14.10
2019-04-29T15:46:48.989Z,14.20
2019-04-29T15:49:20.085Z,14.10
2019-04-29T15:51:51.316Z,14.20
2019-04-29T15:54:21.712Z,14.10
2019-04-29T15:56:52.047Z,13.90
2019-04-29T15:59:22.299Z,13.80
2019-04-29T16:01:52.677Z,13.90
2019-04-29T16:04:47.304Z,13.90
2019-04-29T16:07:58.288Z,14.00
2019-04-29T16:10:58.017Z,14.10
2019-04-29T16:13:50.132Z,14.00
2019-04-29T16:16:37.023Z,13.80
2019-04-29T16:19:25.149Z,13.70
2019-04-29T16:22:20.003Z,13.60
2019-04-29T16:25:04.838Z,13.60
2019-04-29T16:27:54.043Z,13.60
2019-04-29T16:30:42.225Z,13.60
2019-04-29T16:33:30.659Z,13.40
2019-04-29T16:36:19.270Z,13.30
2019-04-29T16:39:08.235Z,13.20
2019-04-29T16:42:14.985Z,13.20
2019-04-29T16:44:46.390Z,13.10
2019-04-29T16:47:17.194Z,13.10
2019-04-29T16:49:47.607Z,13.20
2019-04-29T16:52:18.011Z,13.00
2019-04-29T16:54:48.469Z,13.00
2019-04-29T16:57:18.906Z,12.90
2019-04-29T16:59:49.369Z,12.90
2019-04-29T17:02:20.045Z,12.80
2019-04-29T17:04:50.550Z,12.80
2019-04-29T17:07:33.285Z,12.90
2019-04-29T17:10:21.338Z,12.80
2019-04-29T17:12:51.953Z,12.70
2019-04-29T17:15:25.374Z,12.60
2019-04-29T17:17:54.429Z,12.40
2019-04-29T17:20:24.825Z,12.50
2019-04-29T17:22:55.211Z,12.40
2019-04-29T17:25:25.522Z,12.30
2019-04-29T17:28:02.462Z,12.30
2019-04-29T17:31:14.363Z,12.30
2019-04-29T17:33:54.566Z,12.30
2019-04-29T17:36:25.875Z,12.40
2019-04-29T17:38:56.439Z,12.40
2019-04-29T17:41:26.748Z,12.40
2019-04-29T17:44:18.680Z,12.40
2019-04-29T17:47:13.334Z,12.30
2019-04-29T17:49:51.246Z,12.20
2019-04-29T17:52:25.960Z,12.20
2019-04-29T17:55:02.959Z,12.20
2019-04-29T17:57:38.350Z,12.10
2019-04-29T18:00:41.389Z,12.20
2019-04-29T18:03:41.314Z,12.30
2019-04-29T18:06:18.806Z,12.30
2019-04-29T18:08:56.625Z,12.10
2019-04-29T18:11:28.547Z,12.00
2019-04-29T18:13:58.912Z,11.80
2019-04-29T18:16:39.544Z,11.90
2019-04-29T18:19:30.879Z,11.90
2019-04-29T18:22:32.437Z,11.80
2019-04-29T18:25:09.697Z,11.90
2019-04-29T18:27:40.037Z,11.80
2019-04-29T18:30:12.248Z,11.80
2019-04-29T18:32:46.623Z,11.80
2019-04-29T18:35:15.370Z,11.90
2019-04-29T18:37:46.627Z,12.00
2019-04-29T18:40:17.187Z,12.00
2019-04-29T18:42:48.684Z,12.10
2019-04-29T18:45:19.169Z,12.10
2019-04-29T18:47:49.541Z,12.10
2019-04-29T18:50:19.844Z,12.10
2019-04-29T18:52:50.216Z,12.20
2019-04-29T18:55:20.525Z,12.10
2019-04-29T18:57:50.838Z,12.10
2019-04-29T19:00:21.913Z,12.10
2019-04-29T19:02:57.331Z,12.00
2019-04-29T19:05:32.422Z,12.10
2019-04-29T19:08:12.186Z,12.10
2019-04-29T19:10:37.377Z,11.90
2019-04-29T19:13:14.210Z,11.80
2019-04-29T19:15:44.178Z,11.80
2019-04-29T19:18:12.477Z,11.80
2019-04-29T19:20:46.114Z,11.80
2019-04-29T19:23:22.163Z,11.80
2019-04-29T19:25:49.732Z,11.80
2019-04-29T19:28:29.455Z,11.80
2019-04-29T19:30:56.063Z,11.80
2019-04-29T19:33:25.199Z,11.80
2019-04-29T19:35:55.599Z,11.60
2019-04-29T19:38:26.045Z,11.70
2019-04-29T19:40:56.343Z,11.80
2019-04-29T19:43:26.719Z,11.80
2019-04-29T19:45:57.459Z,11.80
2019-04-29T19:48:28.745Z,11.70
2019-04-29T19:51:18.023Z,11.70
2019-04-29T19:53:31.152Z,11.70
2019-04-29T19:56:04.470Z,11.70
2019-04-29T19:58:33.740Z,11.60
2019-04-29T20:01:11.793Z,11.70
2019-04-29T20:03:42.359Z,11.60
2019-04-29T20:06:21.457Z,11.60
2019-04-29T20:08:53.984Z,11.50
2019-04-29T20:11:18.815Z,11.50
2019-04-29T20:14:02.265Z,11.50
2019-04-29T20:16:44.838Z,11.60
2019-04-29T20:19:33.370Z,11.40
2019-04-29T20:22:07.454Z,11.40
2019-04-29T20:24:36.290Z,11.50
2019-04-29T20:27:06.754Z,11.30
2019-04-29T20:29:38.709Z,11.40
2019-04-29T20:32:09.562Z,11.40
2019-04-29T20:34:40.056Z,11.40
2019-04-29T20:37:15.167Z,11.40
2019-04-29T20:39:42.466Z,11.20
2019-04-29T20:42:12.950Z,11.40
2019-04-29T20:44:45.766Z,11.50
2019-04-29T20:47:22.151Z,11.40
2019-04-29T20:49:47.160Z,11.40
2019-04-29T20:52:33.008Z,11.30
2019-04-29T20:55:05.542Z,11.30
2019-04-29T20:57:35.938Z,11.30
2019-04-29T21:00:07.248Z,11.00
2019-04-29T21:02:37.838Z,11.00
2019-04-29T21:05:10.011Z,11.00
2019-04-29T21:07:40.422Z,11.10
2019-04-29T21:10:11.189Z,11.10
2019-04-29T21:13:00.660Z,11.10
2019-04-29T21:15:52.243Z,11.20
2019-04-29T21:18:18.869Z,11.10
2019-04-29T21:20:49.093Z,11.30
2019-04-29T21:23:19.391Z,11.20
2019-04-29T21:25:49.669Z,11.20
2019-04-29T21:28:19.922Z,11.20
2019-04-29T21:30:50.207Z,11.30
2019-04-29T21:33:21.503Z,11.30
2019-04-29T21:36:11.740Z,11.40
2019-04-29T21:39:01.923Z,11.40
2019-04-29T21:41:36.460Z,11.30
2019-04-29T21:44:07.276Z,11.40
2019-04-29T21:46:37.578Z,11.40
2019-04-29T21:49:11.678Z,11.30
2019-04-29T21:51:41.725Z,11.20
2019-04-29T21:54:14.178Z,11.10
2019-04-29T21:56:46.961Z,11.10
2019-04-29T21:59:15.848Z,11.10
2019-04-29T22:01:46.537Z,11.20
2019-04-29T22:04:16.814Z,11.00
2019-04-29T22:06:47.466Z,11.00
2019-04-29T22:09:17.883Z,11.20
2019-04-29T22:11:48.321Z,11.10
2019-04-29T22:14:18.688Z,11.20
2019-04-29T22:16:54.246Z,11.10
2019-04-29T22:19:26.058Z,11.20
2019-04-29T22:21:57.261Z,11.30
2019-04-29T22:24:26.330Z,11.30
2019-04-29T22:27:04.163Z,11.20
2019-04-29T22:29:31.961Z,11.20
2019-04-29T22:32:01.232Z,11.30
2019-04-29T22:34:31.493Z,11.20
2019-04-29T22:37:01.737Z,11.30
2019-04-29T22:39:32.044Z,11.30
2019-04-29T22:42:27.745Z,11.30
2019-04-29T22:44:57.369Z,11.30
2019-04-29T22:47:28.083Z,11.40
2019-04-29T22:49:58.674Z,11.50
2019-04-29T22:52:31.456Z,11.30
2019-04-29T22:55:02.337Z,11.30
2019-04-29T22:57:32.813Z,11.30
2019-04-29T23:00:05.013Z,11.30
2019-04-29T23:02:35.151Z,11.10
2019-04-29T23:05:05.553Z,11.20
2019-04-29T23:07:37.801Z,11.10
2019-04-29T23:10:08.168Z,11.20
2019-04-29T23:12:38.422Z,11.10
2019-04-29T23:15:08.738Z,11.20
2019-04-29T23:17:42.609Z,11.20
2019-04-29T23:20:35.508Z,11.20
2019-04-29T23:23:10.772Z,10.90
2019-04-29T23:25:52.034Z,10.90
2019-04-29T23:28:26.764Z,11.00
2019-04-29T23:30:54.629Z,11.00
2019-04-29T23:33:26.390Z,11.10
2019-04-29T23:35:56.859Z,10.90
2019-04-29T23:38:27.188Z,11.10
2019-04-29T23:40:57.462Z,11.20
2019-04-29T23:43:28.560Z,11.20
2019-04-29T23:46:00.481Z,11.20
2019-04-29T23:48:38.865Z,11.20
2019-04-29T23:51:03.117Z,11.20
2019-04-29T23:53:35.065Z,11.20
2019-04-29T23:56:09.507Z,11.20
2019-04-29T23:58:46.760Z,11.20
